createdAt,value
2018-08-06T00:00:32.311Z,20.38
2018-08-06T00:03:04.397Z,20.39
2018-08-06T00:05:36.530Z,20.39
2018-08-06T00:08:08.646Z,20.44
2018-08-06T00:10:40.780Z,20.34
2018-08-06T00:13:12.852Z,20.26
2018-08-06T00:15:45.615Z,20.29
2018-08-06T00:18:17.774Z,20.31
2018-08-06T00:20:49.931Z,20.40
2018-08-06T00:23:22.016Z,20.29
2018-08-06T00:25:54.196Z,20.22
2018-08-06T00:28:26.247Z,20.20
2018-08-06T00:30:58.325Z,20.24
2018-08-06T00:33:30.368Z,20.14
2018-08-06T00:36:02.477Z,20.21
2018-08-06T00:38:34.584Z,20.24
2018-08-06T00:41:06.722Z,20.13
2018-08-06T00:43:38.772Z,20.02
2018-08-06T00:46:10.878Z,20.03
2018-08-06T00:48:43.112Z,19.92
2018-08-06T00:51:15.258Z,19.99
2018-08-06T00:53:47.380Z,20.01
2018-08-06T00:56:19.499Z,20.00
2018-08-06T00:58:51.589Z,19.90
2018-08-06T01:01:23.695Z,19.80
2018-08-06T01:03:55.801Z,19.74
2018-08-06T01:06:27.965Z,19.82
2018-08-06T01:09:00.078Z,19.67
2018-08-06T01:11:32.226Z,19.58
2018-08-06T01:14:04.353Z,19.41
2018-08-06T01:16:36.452Z,19.36
2018-08-06T01:19:08.540Z,19.28
2018-08-06T01:21:40.694Z,19.27
2018-08-06T01:24:12.819Z,19.40
2018-08-06T01:26:44.926Z,19.51
2018-08-06T01:29:17.006Z,19.41
2018-08-06T01:31:49.076Z,19.42
2018-08-06T01:34:21.176Z,19.52
2018-08-06T01:36:53.252Z,19.48
2018-08-06T01:39:25.379Z,19.45
2018-08-06T01:41:57.481Z,19.39
2018-08-06T01:44:29.568Z,19.31
2018-08-06T01:47:01.620Z,19.26
2018-08-06T01:49:33.707Z,19.20
2018-08-06T01:52:05.753Z,19.19
2018-08-06T01:54:37.780Z,19.18
2018-08-06T01:57:09.932Z,19.19
2018-08-06T01:59:41.991Z,19.32
2018-08-06T02:02:14.115Z,19.39
2018-08-06T02:04:46.168Z,19.19
2018-08-06T02:07:18.264Z,19.06
2018-08-06T02:09:50.355Z,19.00
2018-08-06T02:12:22.428Z,19.06
2018-08-06T02:14:54.530Z,18.92
2018-08-06T02:17:26.598Z,18.85
2018-08-06T02:19:58.722Z,18.92
2018-08-06T02:22:30.842Z,18.82
2018-08-06T02:25:03.317Z,18.75
2018-08-06T02:27:35.452Z,18.74
2018-08-06T02:30:09.463Z,18.69
2018-08-06T02:32:41.572Z,18.75
2018-08-06T02:35:14.709Z,18.65
2018-08-06T02:37:46.791Z,18.77
2018-08-06T02:40:20.054Z,18.73
2018-08-06T02:42:52.174Z,18.59
2018-08-06T02:45:24.247Z,18.44
2018-08-06T02:47:56.351Z,18.36
2018-08-06T02:50:28.427Z,18.45
2018-08-06T02:53:00.585Z,18.41
2018-08-06T02:55:32.720Z,18.30
2018-08-06T02:58:05.271Z,18.41
2018-08-06T03:00:37.311Z,18.42
2018-08-06T03:03:09.434Z,18.24
2018-08-06T03:05:41.540Z,18.29
2018-08-06T03:08:13.656Z,18.37
2018-08-06T03:10:45.833Z,18.22
2018-08-06T03:13:17.949Z,18.21
2018-08-06T03:15:50.011Z,18.14
2018-08-06T03:18:22.123Z,18.12
2018-08-06T03:20:54.183Z,18.17
2018-08-06T03:23:26.261Z,18.13
2018-08-06T03:25:58.400Z,18.18
2018-08-06T03:28:31.235Z,18.06
2018-08-06T03:31:03.415Z,18.15
2018-08-06T03:33:35.524Z,18.22
2018-08-06T03:36:07.595Z,18.13
2018-08-06T03:38:39.708Z,18.12
2018-08-06T03:41:11.793Z,18.17
2018-08-06T03:43:43.955Z,18.04
2018-08-06T03:46:16.071Z,17.99
2018-08-06T03:48:48.189Z,17.91
2018-08-06T03:51:20.274Z,17.83
2018-08-06T03:53:52.338Z,17.89
2018-08-06T03:56:24.464Z,17.91
2018-08-06T03:58:56.534Z,17.83
2018-08-06T04:01:28.643Z,17.84
2018-08-06T04:04:00.766Z,17.95
2018-08-06T04:06:32.867Z,17.84
2018-08-06T04:09:06.440Z,17.79
2018-08-06T04:11:38.565Z,17.81
2018-08-06T04:14:10.703Z,17.81
2018-08-06T04:16:43.541Z,17.88
2018-08-06T04:19:15.625Z,17.91
2018-08-06T04:21:47.740Z,17.87
2018-08-06T04:24:19.877Z,17.93
2018-08-06T04:26:52.066Z,17.92
2018-08-06T04:29:24.206Z,18.04
2018-08-06T04:31:56.388Z,18.06
2018-08-06T04:34:28.469Z,18.17
2018-08-06T04:37:00.613Z,18.27
2018-08-06T04:39:32.771Z,18.30
2018-08-06T04:42:05.040Z,18.32
2018-08-06T04:44:37.148Z,18.35
2018-08-06T04:47:09.523Z,18.40
2018-08-06T04:49:41.636Z,18.42
2018-08-06T04:52:13.929Z,18.55
2018-08-06T04:54:46.026Z,18.61
2018-08-06T04:57:18.079Z,18.64
2018-08-06T04:59:50.184Z,18.55
2018-08-06T05:02:22.292Z,18.62
2018-08-06T05:04:54.379Z,18.69
2018-08-06T05:07:26.495Z,18.83
2018-08-06T05:09:58.595Z,18.91
2018-08-06T05:12:30.687Z,19.28
2018-08-06T05:15:02.858Z,19.86
2018-08-06T05:17:34.925Z,20.27
2018-08-06T05:20:07.020Z,21.02
2018-08-06T05:22:39.140Z,21.63
2018-08-06T05:25:11.312Z,22.32
2018-08-06T05:27:43.410Z,22.17
2018-08-06T05:30:15.595Z,22.05
2018-08-06T05:32:47.728Z,23.00
2018-08-06T05:35:19.865Z,23.29
2018-08-06T05:37:51.972Z,22.97
2018-08-06T05:40:24.142Z,22.82
2018-08-06T05:42:56.260Z,23.91
2018-08-06T05:45:28.338Z,25.27
2018-08-06T05:48:00.466Z,25.86
2018-08-06T05:50:32.556Z,25.75
2018-08-06T05:53:04.699Z,25.76
2018-08-06T05:55:37.095Z,26.15
2018-08-06T05:58:09.195Z,26.62
2018-08-06T06:00:41.332Z,26.61
2018-08-06T06:03:13.402Z,27.27
2018-08-06T06:05:45.572Z,27.60
2018-08-06T06:08:17.720Z,27.66
2018-08-06T06:10:49.851Z,27.90
2018-08-06T06:13:21.940Z,28.81
2018-08-06T06:15:54.027Z,28.81
2018-08-06T06:18:26.140Z,28.22
2018-08-06T06:20:58.288Z,28.15
2018-08-06T06:23:30.407Z,28.37
2018-08-06T06:26:03.588Z,27.88
2018-08-06T06:28:35.729Z,28.56
2018-08-06T06:31:08.188Z,27.95
2018-08-06T06:33:40.333Z,28.37
2018-08-06T06:36:12.455Z,28.60
2018-08-06T06:38:44.567Z,28.36
2018-08-06T06:41:17.702Z,29.81
2018-08-06T06:43:49.805Z,30.75
2018-08-06T06:46:21.948Z,29.99
2018-08-06T06:48:54.035Z,29.21
2018-08-06T06:51:26.183Z,28.39
2018-08-06T06:53:58.348Z,27.67
2018-08-06T06:56:30.455Z,28.12
2018-08-06T06:59:02.591Z,28.64
2018-08-06T07:01:34.780Z,28.97
2018-08-06T07:04:06.876Z,28.78
2018-08-06T07:06:39.040Z,28.70
2018-08-06T07:09:12.036Z,29.31
2018-08-06T07:11:44.198Z,30.27
2018-08-06T07:14:16.433Z,30.40
2018-08-06T07:16:48.483Z,31.28
2018-08-06T07:19:20.591Z,32.42
2018-08-06T07:21:52.738Z,32.24
2018-08-06T07:24:24.815Z,32.02
2018-08-06T07:26:56.893Z,30.60
2018-08-06T07:29:29.003Z,30.93
2018-08-06T07:32:01.126Z,30.29
2018-08-06T07:34:33.220Z,31.03
2018-08-06T07:37:05.312Z,32.10
2018-08-06T07:39:37.419Z,32.12
2018-08-06T07:42:09.565Z,32.35
2018-08-06T07:44:41.635Z,33.27
2018-08-06T07:47:13.763Z,33.46
2018-08-06T07:49:45.920Z,34.35
2018-08-06T07:52:18.107Z,33.58
2018-08-06T07:54:50.164Z,33.79
2018-08-06T07:57:22.256Z,34.57
2018-08-06T07:59:54.348Z,33.76
2018-08-06T08:02:26.457Z,34.89
2018-08-06T08:04:58.628Z,34.54
2018-08-06T08:07:30.782Z,35.72
2018-08-06T08:10:04.831Z,35.26
2018-08-06T08:12:37.081Z,35.80
2018-08-06T08:15:12.664Z,36.06
2018-08-06T08:17:46.230Z,35.51
2018-08-06T08:20:18.676Z,35.64
2018-08-06T08:22:50.669Z,36.14
2018-08-06T08:25:22.997Z,35.55
2018-08-06T08:27:55.182Z,35.17
2018-08-06T08:30:27.352Z,35.80
2018-08-06T08:32:59.415Z,35.59
2018-08-06T08:35:32.165Z,35.12
2018-08-06T08:38:04.649Z,35.08
2018-08-06T08:40:36.745Z,35.08
2018-08-06T08:43:08.812Z,35.05
2018-08-06T08:45:40.958Z,35.01
2018-08-06T08:48:13.012Z,34.65
2018-08-06T08:50:45.109Z,34.65
2018-08-06T08:53:17.251Z,35.03
2018-08-06T08:55:49.380Z,34.95
2018-08-06T08:58:21.473Z,35.75
2018-08-06T09:00:53.503Z,34.83
2018-08-06T09:03:25.632Z,34.80
2018-08-06T09:05:57.709Z,35.03
2018-08-06T09:08:29.789Z,34.39
2018-08-06T09:11:01.958Z,35.61
2018-08-06T09:13:34.007Z,35.60
2018-08-06T09:16:06.078Z,35.44
2018-08-06T09:18:39.189Z,35.54
2018-08-06T09:21:11.249Z,34.77
2018-08-06T09:23:43.355Z,34.97
2018-08-06T09:26:15.397Z,35.43
2018-08-06T09:28:47.428Z,35.48
2018-08-06T09:31:19.506Z,35.41
2018-08-06T09:33:52.034Z,34.38
2018-08-06T09:36:24.099Z,33.70
2018-08-06T09:38:56.175Z,33.43
2018-08-06T09:41:28.260Z,33.73
2018-08-06T09:44:00.400Z,34.47
2018-08-06T09:46:32.487Z,33.55
2018-08-06T09:49:05.303Z,33.53
2018-08-06T09:51:37.366Z,33.89
2018-08-06T09:54:09.508Z,34.30
2018-08-06T09:56:41.688Z,34.53
2018-08-06T09:59:13.815Z,34.67
2018-08-06T10:01:51.519Z,34.77
2018-08-06T10:04:24.404Z,34.43
2018-08-06T10:06:56.479Z,34.19
2018-08-06T10:09:28.571Z,34.11
2018-08-06T10:12:00.640Z,34.75
2018-08-06T10:14:32.717Z,35.57
2018-08-06T10:17:04.876Z,35.48
2018-08-06T10:19:36.978Z,36.27
2018-08-06T10:22:09.099Z,36.56
2018-08-06T10:24:41.184Z,36.63
2018-08-06T10:27:13.330Z,35.73
2018-08-06T10:29:45.467Z,35.37
2018-08-06T10:32:18.018Z,34.95
2018-08-06T10:34:50.152Z,34.45
2018-08-06T10:37:22.301Z,34.45
2018-08-06T10:39:54.432Z,34.79
2018-08-06T10:42:26.520Z,34.93
2018-08-06T10:44:58.606Z,34.06
2018-08-06T10:47:30.721Z,33.34
2018-08-06T10:50:03.268Z,33.71
2018-08-06T10:52:35.719Z,34.18
2018-08-06T10:55:08.733Z,34.88
2018-08-06T10:57:42.262Z,35.42
2018-08-06T11:00:16.412Z,35.51
2018-08-06T11:02:49.092Z,35.65
2018-08-06T11:05:21.258Z,35.50
2018-08-06T11:07:53.348Z,35.55
2018-08-06T11:10:25.421Z,35.38
2018-08-06T11:12:57.511Z,35.97
2018-08-06T11:15:29.631Z,35.90
2018-08-06T11:18:01.717Z,35.78
2018-08-06T11:20:33.915Z,36.01
2018-08-06T11:23:05.947Z,35.46
2018-08-06T11:25:38.007Z,35.45
2018-08-06T11:28:10.103Z,35.54
2018-08-06T11:30:42.179Z,34.65
2018-08-06T11:33:14.476Z,35.23
2018-08-06T11:35:46.555Z,35.23
2018-08-06T11:38:18.628Z,35.97
2018-08-06T11:40:50.730Z,35.65
2018-08-06T11:43:22.858Z,35.72
2018-08-06T11:45:54.941Z,36.08
2018-08-06T11:48:27.022Z,36.50
2018-08-06T11:50:59.132Z,36.20
2018-08-06T11:53:31.215Z,35.58
2018-08-06T11:56:03.319Z,35.53
2018-08-06T11:58:35.415Z,36.40
2018-08-06T12:01:07.538Z,37.01
2018-08-06T12:03:39.603Z,37.11
2018-08-06T12:06:11.719Z,37.14
2018-08-06T12:08:43.816Z,37.00
2018-08-06T12:11:15.906Z,37.15
2018-08-06T12:13:47.971Z,37.09
2018-08-06T12:16:20.093Z,37.33
2018-08-06T12:18:52.178Z,37.40
2018-08-06T12:21:24.247Z,37.16
2018-08-06T12:23:56.567Z,37.15
2018-08-06T12:26:28.620Z,36.77
2018-08-06T12:29:00.687Z,36.61
2018-08-06T12:31:32.865Z,37.39
2018-08-06T12:34:05.159Z,37.23
2018-08-06T12:36:37.253Z,37.61
2018-08-06T12:39:11.748Z,38.03
2018-08-06T12:41:43.876Z,37.35
2018-08-06T12:44:16.008Z,37.97
2018-08-06T12:46:48.144Z,37.21
2018-08-06T12:49:20.260Z,38.26
2018-08-06T12:51:52.436Z,37.82
2018-08-06T12:54:24.511Z,38.51
2018-08-06T12:56:57.453Z,40.29
2018-08-06T12:59:29.546Z,40.76
2018-08-06T13:02:01.629Z,40.22
2018-08-06T13:04:33.731Z,39.21
2018-08-06T13:07:05.844Z,40.05
2018-08-06T13:09:37.952Z,39.35
2018-08-06T13:12:10.072Z,38.86
2018-08-06T13:14:42.296Z,37.23
2018-08-06T13:17:14.429Z,37.77
2018-08-06T13:19:46.497Z,39.40
2018-08-06T13:22:18.588Z,40.01
2018-08-06T13:24:50.697Z,40.40
2018-08-06T13:27:22.803Z,39.11
2018-08-06T13:29:54.898Z,37.91
2018-08-06T13:32:27.042Z,37.79
2018-08-06T13:34:59.137Z,38.36
2018-08-06T13:37:31.264Z,39.14
2018-08-06T13:40:03.764Z,39.03
2018-08-06T13:42:35.944Z,38.67
2018-08-06T13:45:09.895Z,37.43
2018-08-06T13:47:42.189Z,37.89
2018-08-06T13:50:14.342Z,38.55
2018-08-06T13:52:46.488Z,38.34
2018-08-06T13:55:18.579Z,38.34
2018-08-06T13:57:50.726Z,39.29
2018-08-06T14:00:22.841Z,41.53
2018-08-06T14:02:54.942Z,39.30
2018-08-06T14:05:27.058Z,40.29
2018-08-06T14:07:59.119Z,41.72
2018-08-06T14:10:31.235Z,41.82
2018-08-06T14:13:03.383Z,39.82
2018-08-06T14:15:35.575Z,39.31
2018-08-06T14:18:07.739Z,38.55
2018-08-06T14:20:39.846Z,38.17
2018-08-06T14:23:12.000Z,38.18
2018-08-06T14:25:44.141Z,39.88
2018-08-06T14:28:16.391Z,40.17
2018-08-06T14:30:48.518Z,39.01
2018-08-06T14:33:20.627Z,39.66
2018-08-06T14:35:52.703Z,40.83
2018-08-06T14:38:26.024Z,40.46
2018-08-06T14:40:58.113Z,40.70
2018-08-06T14:43:30.373Z,40.85
2018-08-06T14:46:02.605Z,40.57
2018-08-06T14:48:34.894Z,38.64
2018-08-06T14:51:07.161Z,38.92
2018-08-06T14:53:39.296Z,39.30
2018-08-06T14:56:11.393Z,38.79
2018-08-06T14:58:43.525Z,38.62
2018-08-06T15:01:15.657Z,39.50
2018-08-06T15:03:47.776Z,39.28
2018-08-06T15:06:20.277Z,39.00
2018-08-06T15:08:52.406Z,38.98
2018-08-06T15:11:24.557Z,39.46
2018-08-06T15:13:56.649Z,39.50
2018-08-06T15:16:28.717Z,39.28
2018-08-06T15:19:00.867Z,39.53
2018-08-06T15:21:33.000Z,41.21
2018-08-06T15:24:05.260Z,41.84
2018-08-06T15:26:37.360Z,40.65
2018-08-06T15:29:09.469Z,39.92
2018-08-06T15:31:41.578Z,40.08
2018-08-06T15:34:13.763Z,38.59
2018-08-06T15:36:45.883Z,39.97
2018-08-06T15:39:18.060Z,38.64
2018-08-06T15:41:50.181Z,39.49
2018-08-06T15:44:22.343Z,37.26
2018-08-06T15:46:54.500Z,37.29
2018-08-06T15:49:26.647Z,36.95
2018-08-06T15:51:58.807Z,37.80
2018-08-06T15:54:30.925Z,37.94
2018-08-06T15:57:02.987Z,38.26
2018-08-06T15:59:35.102Z,37.47
2018-08-06T16:02:07.467Z,37.83
2018-08-06T16:04:39.688Z,38.53
2018-08-06T16:07:11.772Z,38.70
2018-08-06T16:09:43.955Z,39.24
2018-08-06T16:12:16.027Z,38.96
2018-08-06T16:14:48.148Z,39.58
2018-08-06T16:17:20.261Z,39.86
2018-08-06T16:19:52.451Z,38.90
2018-08-06T16:22:24.794Z,37.36
2018-08-06T16:24:56.987Z,37.60
2018-08-06T16:27:29.135Z,36.06
2018-08-06T16:30:01.284Z,34.63
2018-08-06T16:32:33.370Z,34.57
2018-08-06T16:35:06.351Z,34.13
2018-08-06T16:37:38.471Z,34.22
2018-08-06T16:40:11.283Z,33.90
2018-08-06T16:42:43.516Z,33.87
2018-08-06T16:45:15.691Z,33.37
2018-08-06T16:47:47.850Z,33.02
2018-08-06T16:50:20.049Z,32.60
2018-08-06T16:52:52.254Z,32.55
2018-08-06T16:55:24.391Z,32.36
2018-08-06T17:00:35.478Z,31.83
2018-08-06T17:03:07.563Z,31.73
2018-08-06T17:05:39.787Z,31.61
2018-08-06T17:08:11.946Z,31.37
2018-08-06T17:10:44.156Z,31.25
2018-08-06T17:13:16.300Z,31.13
2018-08-06T17:15:48.503Z,31.21
2018-08-06T17:18:20.687Z,31.07
2018-08-06T17:20:52.887Z,30.97
2018-08-06T17:23:25.011Z,30.79
2018-08-06T17:25:57.132Z,30.64
2018-08-06T17:28:29.240Z,30.62
2018-08-06T17:31:01.400Z,30.53
2018-08-06T17:33:33.566Z,30.51
2018-08-06T17:36:06.708Z,30.43
2018-08-06T17:38:38.771Z,30.32
2018-08-06T17:41:10.835Z,30.22
2018-08-06T17:43:42.952Z,30.16
2018-08-06T17:46:15.092Z,30.08
2018-08-06T17:48:47.239Z,30.01
2018-08-06T17:51:19.479Z,29.94
2018-08-06T17:53:51.626Z,29.82
2018-08-06T17:56:23.741Z,29.83
2018-08-06T17:58:55.920Z,29.65
2018-08-06T18:01:28.053Z,29.54
2018-08-06T18:04:00.144Z,29.33
2018-08-06T18:06:32.334Z,29.27
2018-08-06T18:09:07.762Z,29.22
2018-08-06T18:11:39.891Z,29.02
2018-08-06T18:14:12.006Z,28.92
2018-08-06T18:16:44.209Z,28.81
2018-08-06T18:19:16.255Z,28.63
2018-08-06T18:21:48.429Z,28.43
2018-08-06T18:24:20.543Z,28.30
2018-08-06T18:26:52.619Z,28.11
2018-08-06T18:29:24.727Z,27.93
2018-08-06T18:31:56.851Z,27.77
2018-08-06T18:34:29.063Z,27.73
2018-08-06T18:37:01.485Z,27.55
2018-08-06T18:39:33.489Z,27.37
2018-08-06T18:42:05.642Z,27.16
2018-08-06T18:44:37.699Z,26.87
2018-08-06T18:47:09.868Z,26.77
2018-08-06T18:49:41.912Z,26.66
2018-08-06T18:52:14.137Z,26.54
2018-08-06T18:54:46.154Z,26.44
2018-08-06T18:57:18.242Z,26.42
2018-08-06T18:59:50.350Z,26.34
2018-08-06T19:02:22.552Z,26.21
2018-08-06T19:04:54.615Z,26.06
2018-08-06T19:07:26.795Z,25.91
2018-08-06T19:09:58.922Z,25.84
2018-08-06T19:12:36.799Z,25.73
2018-08-06T19:15:08.947Z,25.62
2018-08-06T19:17:46.978Z,25.49
2018-08-06T19:20:19.155Z,25.28
2018-08-06T19:22:51.274Z,25.20
2018-08-06T19:25:24.445Z,25.27
2018-08-06T19:27:56.621Z,25.16
2018-08-06T19:30:34.568Z,25.09
2018-08-06T19:33:06.685Z,24.98
2018-08-06T19:35:38.851Z,24.42
2018-08-06T19:38:10.944Z,24.68
2018-08-06T19:40:43.039Z,24.47
2018-08-06T19:43:20.945Z,24.19
2018-08-06T19:45:53.044Z,24.02
2018-08-06T19:48:25.245Z,24.00
2018-08-06T19:50:57.443Z,24.04
2018-08-06T19:53:29.599Z,24.07
2018-08-06T19:56:07.412Z,24.01
2018-08-06T19:58:39.982Z,23.99
2018-08-06T20:01:12.150Z,23.92
2018-08-06T20:03:44.316Z,23.84
2018-08-06T20:06:16.471Z,23.75
2018-08-06T20:08:48.623Z,23.70
2018-08-06T20:11:20.735Z,23.65
2018-08-06T20:13:52.865Z,23.54
2018-08-06T20:16:24.959Z,23.31
2018-08-06T20:18:57.067Z,23.28
2018-08-06T20:21:29.203Z,23.20
2018-08-06T20:24:01.358Z,23.04
2018-08-06T20:26:33.434Z,22.88
2018-08-06T20:29:05.611Z,22.85
2018-08-06T20:31:37.683Z,22.96
2018-08-06T20:34:09.853Z,23.02
2018-08-06T20:36:41.931Z,23.11
2018-08-06T20:39:14.091Z,23.11
2018-08-06T20:41:46.215Z,23.03
2018-08-06T20:44:18.330Z,22.85
2018-08-06T20:46:50.485Z,22.56
2018-08-06T20:49:22.849Z,22.33
2018-08-06T20:51:55.733Z,22.12
2018-08-06T20:54:28.395Z,22.13
2018-08-06T20:57:00.600Z,22.12
2018-08-06T20:59:32.660Z,22.20
2018-08-06T21:04:36.284Z,22.07
2018-08-06T21:07:08.764Z,21.91
2018-08-06T21:09:40.879Z,21.70
2018-08-06T21:12:13.001Z,21.72
2018-08-06T21:14:45.119Z,21.88
2018-08-06T21:17:17.755Z,21.74
2018-08-06T21:19:50.175Z,21.57
2018-08-06T21:22:22.243Z,21.35
2018-08-06T21:24:54.322Z,21.37
2018-08-06T21:27:26.431Z,21.39
2018-08-06T21:29:58.522Z,21.19
2018-08-06T21:32:30.625Z,21.05
2018-08-06T21:35:02.786Z,20.94
2018-08-06T21:37:34.890Z,21.08
2018-08-06T21:40:07.014Z,21.07
2018-08-06T21:42:39.175Z,20.96
2018-08-06T21:45:11.325Z,20.89
2018-08-06T21:47:43.807Z,20.96
2018-08-06T21:50:16.023Z,21.01
2018-08-06T21:52:48.135Z,20.89
2018-08-06T21:55:20.228Z,20.85
2018-08-06T21:57:52.277Z,20.68
2018-08-06T22:00:36.818Z,20.82
2018-08-06T22:03:11.367Z,20.95
2018-08-06T22:05:43.898Z,20.90
2018-08-06T22:08:15.999Z,20.82
2018-08-06T22:10:48.181Z,20.72
2018-08-06T22:13:20.275Z,20.71
2018-08-06T22:15:52.416Z,20.62
2018-08-06T22:18:24.559Z,20.47
2018-08-06T22:20:56.644Z,20.32
2018-08-06T22:23:28.718Z,20.42
2018-08-06T22:26:00.866Z,20.54
2018-08-06T22:28:32.891Z,20.40
2018-08-06T22:31:04.968Z,20.35
2018-08-06T22:33:37.038Z,20.10
2018-08-06T22:36:09.119Z,20.10
2018-08-06T22:38:41.224Z,20.16
2018-08-06T22:41:13.303Z,20.06
2018-08-06T22:43:45.413Z,20.05
2018-08-06T22:46:17.550Z,20.10
2018-08-06T22:48:49.638Z,20.07
2018-08-06T22:51:21.731Z,20.13
2018-08-06T22:53:53.833Z,20.27
2018-08-06T22:56:25.939Z,20.21
2018-08-06T22:58:58.029Z,20.17
2018-08-06T23:01:30.118Z,20.09
2018-08-06T23:04:02.202Z,20.02
2018-08-06T23:06:34.276Z,19.90
2018-08-06T23:09:08.367Z,19.89
2018-08-06T23:11:41.153Z,19.81
2018-08-06T23:14:13.221Z,19.92
2018-08-06T23:16:45.290Z,20.00
2018-08-06T23:19:17.415Z,19.96
2018-08-06T23:21:49.486Z,19.83
2018-08-06T23:24:21.576Z,19.80
2018-08-06T23:26:53.659Z,19.83
2018-08-06T23:29:25.766Z,19.82
2018-08-06T23:31:57.877Z,19.82
2018-08-06T23:34:30.039Z,19.92
2018-08-06T23:37:02.154Z,20.01
2018-08-06T23:39:34.279Z,20.02
2018-08-06T23:42:06.403Z,20.00
2018-08-06T23:44:38.528Z,20.00
2018-08-06T23:47:10.642Z,20.13
2018-08-06T23:49:42.711Z,20.14
2018-08-06T23:52:14.881Z,20.28
2018-08-06T23:54:46.990Z,20.33
2018-08-06T23:57:19.057Z,20.24
2018-08-06T23:59:51.148Z,20.26
